Terminal Aerodrome Forecast
Issued by NWS Cleveland, OH

Home | Current Version | Previous Version | Text Only | Print | Product List | Glossary On
Versions: 1 2 3 4 5 6 7 8 9 10 11 12 13 14 15
000
FTUS41 KCLE 212340
TAFYNG
TAF
KYNG 212340Z 2200/2224 20010KT P6SM BKN015 OVC040
     FM220300 21010KT P6SM VCTS BKN020CB
      TEMPO 2203/2205 -SHRA BKN012
     FM220500 23008KT P6SM BKN020
     FM221000 25006KT 6SM BR BKN012
     FM221400 26007KT P6SM BKN025
     FM221800 27010KT P6SM SCT040=

USA.gov is the U.S. government's official web portal to all federal, state and local government web resources and services.